createdAt,value
2022-12-01T00:03:10.369Z,5.60
2022-12-01T00:13:14.448Z,5.60
2022-12-01T00:28:20.537Z,5.70
2022-12-01T00:33:22.295Z,5.80
2022-12-01T00:38:24.034Z,5.70
2022-12-01T00:43:25.961Z,5.60
2022-12-01T00:48:27.809Z,5.70
2022-12-01T00:53:29.536Z,5.70
2022-12-01T01:03:34.283Z,5.40
2022-12-01T01:13:38.845Z,5.50
2022-12-01T01:23:43.082Z,5.50
2022-12-01T01:28:45.780Z,5.60
2022-12-01T01:38:54.444Z,5.70
2022-12-01T01:44:04.089Z,5.50
2022-12-01T01:49:12.163Z,5.50
2022-12-01T01:54:31.582Z,5.50
2022-12-01T01:59:40.711Z,5.60
2022-12-01T02:04:47.157Z,5.50
2022-12-01T02:14:54.766Z,5.60
2022-12-01T02:20:30.437Z,5.50
2022-12-01T02:25:57.676Z,5.60
2022-12-01T02:31:23.136Z,5.50
2022-12-01T02:36:34.774Z,5.60
2022-12-01T02:42:04.054Z,5.40
2022-12-01T02:47:17.137Z,5.50
2022-12-01T02:52:19.933Z,5.60
2022-12-01T03:02:43.701Z,5.40
2022-12-01T03:08:05.689Z,5.60
2022-12-01T03:13:10.183Z,5.60
2022-12-01T03:18:49.620Z,5.70
2022-12-01T03:23:56.451Z,5.50
2022-12-01T03:29:09.825Z,5.40
2022-12-01T03:34:18.126Z,5.40
2022-12-01T03:39:23.771Z,5.50
2022-12-01T03:44:30.882Z,5.50
2022-12-01T03:49:34.096Z,5.60
2022-12-01T03:54:35.765Z,5.60
2022-12-01T03:59:39.300Z,5.60
2022-12-01T04:19:47.780Z,5.40
2022-12-01T04:34:54.410Z,5.50
2022-12-01T04:55:03.594Z,5.40
2022-12-01T05:00:12.989Z,5.50
2022-12-01T05:10:19.114Z,5.50
2022-12-01T05:15:21.735Z,5.50
2022-12-01T05:20:44.022Z,5.60
2022-12-01T05:25:45.912Z,5.70
2022-12-01T05:30:48.870Z,5.70
2022-12-01T05:35:51.414Z,5.60
2022-12-01T05:40:56.346Z,5.50
2022-12-01T05:45:58.428Z,5.50
2022-12-01T05:51:00.304Z,5.50
2022-12-01T05:56:04.355Z,5.60
2022-12-01T06:06:08.718Z,5.30
2022-12-01T06:16:13.368Z,5.20
2022-12-01T06:21:15.087Z,5.30
2022-12-01T06:41:23.397Z,5.60
2022-12-01T06:51:28.556Z,5.70
2022-12-01T06:56:30.318Z,5.70
2022-12-01T07:06:34.749Z,5.50
2022-12-01T07:11:37.075Z,5.50
2022-12-01T07:31:45.776Z,5.60
2022-12-01T07:36:47.549Z,5.60
2022-12-01T07:41:49.269Z,5.80
2022-12-01T07:46:51.357Z,5.90
2022-12-01T07:56:55.871Z,5.80
2022-12-01T08:27:10.380Z,4.80
2022-12-01T08:32:12.083Z,5.90
2022-12-01T08:37:14.695Z,5.90
2022-12-01T08:42:16.467Z,5.50
2022-12-01T08:47:18.994Z,5.70
2022-12-01T08:52:21.334Z,6.00
2022-12-01T08:57:23.121Z,5.90
2022-12-01T09:02:25.630Z,6.00
2022-12-01T09:12:30.194Z,5.90
2022-12-01T09:17:31.878Z,6.00
2022-12-01T09:22:34.692Z,5.90
2022-12-01T09:27:36.464Z,6.20
2022-12-01T09:42:44.215Z,6.00
2022-12-01T09:47:46.777Z,5.90
2022-12-01T09:52:54.328Z,6.10
2022-12-01T09:57:59.205Z,6.20
2022-12-01T10:03:21.379Z,6.20
2022-12-01T10:08:27.072Z,6.30
2022-12-01T10:13:29.527Z,6.40
2022-12-01T10:23:40.440Z,6.30
2022-12-01T10:29:05.244Z,6.20
2022-12-01T10:34:14.571Z,6.50
2022-12-01T10:39:27.608Z,6.50
2022-12-01T10:44:29.781Z,6.50
2022-12-01T10:49:39.033Z,6.50
2022-12-01T10:54:41.620Z,6.80
2022-12-01T11:00:06.157Z,6.80
2022-12-01T11:05:24.875Z,6.90
2022-12-01T11:10:29.960Z,6.60
2022-12-01T11:15:38.448Z,7.00
2022-12-01T11:20:41.090Z,6.90
2022-12-01T11:25:55.236Z,7.10
2022-12-01T11:31:00.511Z,6.90
2022-12-01T11:36:02.377Z,7.00
2022-12-01T11:41:04.260Z,6.90
2022-12-01T11:46:09.089Z,6.80
2022-12-01T11:51:28.846Z,7.00
2022-12-01T11:56:31.804Z,7.30
2022-12-01T12:01:45.985Z,7.20
2022-12-01T12:06:53.883Z,7.20
2022-12-01T12:12:07.641Z,7.50
2022-12-01T12:17:29.142Z,7.70
2022-12-01T12:22:49.656Z,7.60
2022-12-01T12:28:06.807Z,7.30
2022-12-01T12:33:20.446Z,7.30
2022-12-01T12:38:28.050Z,7.40
2022-12-01T12:43:55.751Z,7.50
2022-12-01T12:49:50.235Z,7.40
2022-12-01T12:55:16.978Z,7.50
2022-12-01T13:00:23.783Z,7.60
2022-12-01T13:06:06.813Z,7.60
2022-12-01T13:11:25.258Z,7.30
2022-12-01T13:16:40.469Z,7.20
2022-12-01T13:21:44.727Z,7.20
2022-12-01T13:26:58.249Z,7.20
2022-12-01T13:32:00.273Z,7.30
2022-12-01T13:37:02.358Z,7.60
2022-12-01T13:42:08.184Z,7.20
2022-12-01T13:47:10.733Z,7.30
2022-12-01T13:52:23.891Z,7.40
2022-12-01T13:57:30.669Z,7.40
2022-12-01T14:02:35.572Z,7.40
2022-12-01T14:07:39.195Z,7.40
2022-12-01T14:12:46.147Z,7.40
2022-12-01T14:17:59.010Z,7.50
2022-12-01T14:23:18.938Z,7.50
2022-12-01T14:28:58.498Z,7.20
2022-12-01T14:34:19.122Z,7.10
2022-12-01T14:39:24.253Z,7.10
2022-12-01T14:44:49.169Z,7.10
2022-12-01T14:50:09.929Z,7.10
2022-12-01T14:55:22.042Z,7.30
2022-12-01T15:00:25.163Z,7.20
2022-12-01T15:05:32.627Z,7.00
2022-12-01T15:10:35.630Z,7.10
2022-12-01T15:15:37.771Z,7.10
2022-12-01T15:20:46.337Z,7.20
2022-12-01T15:25:51.114Z,7.30
2022-12-01T15:30:54.827Z,7.30
2022-12-01T15:35:57.625Z,7.20
2022-12-01T15:46:32.451Z,7.10
2022-12-01T15:51:34.945Z,7.10
2022-12-01T15:56:40.770Z,7.20
2022-12-01T16:01:44.253Z,7.10
2022-12-01T16:06:56.378Z,7.20
2022-12-01T16:12:07.766Z,7.20
2022-12-01T16:17:11.102Z,7.20
2022-12-01T16:22:22.574Z,7.10
2022-12-01T16:27:26.895Z,7.10
2022-12-01T16:32:43.852Z,7.20
2022-12-01T16:37:45.611Z,7.00
2022-12-01T16:42:49.862Z,7.00
2022-12-01T16:47:51.600Z,7.00
2022-12-01T16:52:53.336Z,7.10
2022-12-01T16:57:55.484Z,7.00
2022-12-01T17:02:57.634Z,6.90
2022-12-01T17:07:59.870Z,7.00
2022-12-01T17:13:01.716Z,7.00
2022-12-01T17:18:03.507Z,7.00
2022-12-01T17:23:06.542Z,7.00
2022-12-01T17:28:08.425Z,7.10
2022-12-01T17:33:10.182Z,6.90
2022-12-01T17:38:11.921Z,7.00
2022-12-01T17:43:13.895Z,7.00
2022-12-01T17:48:15.639Z,7.00
2022-12-01T17:53:17.566Z,7.00
2022-12-01T17:58:21.539Z,7.00
2022-12-01T18:08:27.310Z,7.00
2022-12-01T18:13:29.290Z,7.00
2022-12-01T18:18:31.041Z,7.00
2022-12-01T18:23:32.879Z,7.10
2022-12-01T18:28:35.543Z,7.00
2022-12-01T18:33:39.051Z,7.00
2022-12-01T18:43:43.689Z,6.90
2022-12-01T18:48:47.791Z,6.90
2022-12-01T18:53:54.795Z,6.90
2022-12-01T18:58:58.602Z,6.80
2022-12-01T19:04:00.671Z,6.70
2022-12-01T19:09:05.037Z,6.80
2022-12-01T19:14:07.818Z,6.90
2022-12-01T19:24:11.968Z,6.90
2022-12-01T19:29:13.822Z,6.90
2022-12-01T19:34:15.534Z,6.80
2022-12-01T19:39:17.279Z,6.80
2022-12-01T19:44:19.133Z,6.80
2022-12-01T19:49:21.042Z,6.80
2022-12-01T19:54:22.864Z,6.70
2022-12-01T19:59:24.679Z,6.70
2022-12-01T20:04:26.457Z,6.70
2022-12-01T20:09:28.263Z,6.80
2022-12-01T20:19:32.291Z,6.70
2022-12-01T20:24:35.898Z,6.70
2022-12-01T20:29:37.747Z,6.80
2022-12-01T20:44:44.626Z,6.70
2022-12-01T20:49:46.486Z,6.80
2022-12-01T20:54:48.606Z,6.70
2022-12-01T20:59:50.744Z,6.80
2022-12-01T21:04:56.328Z,6.70
2022-12-01T21:10:00.791Z,6.80
2022-12-01T21:15:20.551Z,6.80
2022-12-01T21:20:27.109Z,6.70
2022-12-01T21:25:28.907Z,6.70
2022-12-01T21:30:30.712Z,6.60
2022-12-01T21:35:32.484Z,6.60
2022-12-01T21:40:34.167Z,6.60
2022-12-01T21:45:35.921Z,6.70
2022-12-01T21:50:37.664Z,6.70
2022-12-01T21:55:40.281Z,6.70
2022-12-01T22:00:42.559Z,6.70
2022-12-01T22:06:07.089Z,6.70
2022-12-01T22:11:11.456Z,6.70
2022-12-01T22:16:18.833Z,6.70
2022-12-01T22:21:23.608Z,6.70
2022-12-01T22:31:28.799Z,6.70
2022-12-01T22:36:33.314Z,6.70
2022-12-01T22:46:40.279Z,6.70
2022-12-01T22:51:43.471Z,6.70
2022-12-01T22:56:48.167Z,6.60
2022-12-01T23:01:55.699Z,6.70
2022-12-01T23:07:02.800Z,6.70
2022-12-01T23:12:22.905Z,6.70
2022-12-01T23:17:30.861Z,6.70
2022-12-01T23:22:32.703Z,6.70
2022-12-01T23:32:37.037Z,6.70
2022-12-01T23:37:41.518Z,6.80
2022-12-01T23:42:43.333Z,6.80
2022-12-01T23:47:45.107Z,6.70
2022-12-01T23:52:46.883Z,6.70
2022-12-01T23:57:49.903Z,6.70
